Lulu Pass Weather Station

This weather station provides temperature, relative humidity (RH), wind speed, gust or max wind speed, and wind direction at 10014ft near Lulu Pass at the head of Fisher Creek. This data can be used with temperature and precipitation data from the Fisher Creek SNOTEL site.

This weather station was purchased by the Friends of the Avalanche Center.

If the data has not been updated recently you can view it directly on datagarrison.com

Elevation
10014ft
Jump to table bottom
Date Time Temperature
deg F
RH, % Wind Speed Wind Gust Wind Direction
10/23/19 00:00 17.4 96 24 42 NW - 320
10/22/19 23:00 18.5 97 27 41 NW - 326
10/22/19 22:00 21.1 98 31 51 NW - 320
10/22/19 21:00 22.0 98 29 45 NW - 307
10/22/19 20:00 23.2 98 22 48 W - 284
10/22/19 19:00 23.8 98 21 47 W - 284
10/22/19 18:00 24.8 99 18 36 W - 281
10/22/19 17:00 25.6 99 17 35 W - 279
10/22/19 16:00 26.5 99 14 28 W - 272
10/22/19 15:00 25.7 99 12 27 W - 270
10/22/19 14:00 26.2 99 12 25 W - 251
10/22/19 13:00 25.0 99 10 24 W - 256
10/22/19 12:00 25.1 98 9 23 W - 251
10/22/19 11:00 24.4 98 7 16 W - 250
10/22/19 10:00 23.5 98 7 16 SW - 239
10/22/19 09:00 21.9 97 6 18 SW - 241
10/22/19 08:00 21.2 97 4 13 SW - 218
10/22/19 07:00 21.5 97 6 16 SW - 229
10/22/19 06:00 21.6 97 9 16 W - 248
10/22/19 05:00 20.5 97 7 14 W - 263
10/22/19 04:00 20.1 96 7 15 W - 268
10/22/19 03:00 18.6 96 8 17 SW - 246
10/22/19 02:00 18.0 96 7 19 W - 267
10/22/19 01:00 17.8 96 11 22 W - 285
10/22/19 00:00 17.7 96 13 23 W - 292
10/21/19 23:00 17.6 96 9 19 W - 284
10/21/19 22:00 17.8 96 11 22 W - 281
10/21/19 21:00 17.4 96 11 21 W - 288
10/21/19 20:00 17.8 96 14 23 NW - 300
10/21/19 19:00 17.8 96 12 24 NW - 298
10/21/19 18:00 17.8 96 13 21 NW - 295
10/21/19 17:00 18.5 96 15 22 NW - 314
10/21/19 16:00 18.8 96 14 27 NW - 302
10/21/19 15:00 20.4 96 13 24 NW - 303
10/21/19 14:00 18.7 96 15 20 NW - 312
10/21/19 13:00 18.0 96 20 28 NW - 316
10/21/19 12:00 18.4 96 11 25 NW - 300
10/21/19 11:00 17.8 95 8 13 NW - 296
10/21/19 10:00 17.2 95 7 12 NW - 306
10/21/19 09:00 15.2 95 7 11 NW - 305
10/21/19 08:00 14.5 95 8 12 NW - 314
10/21/19 07:00 14.3 94 7 11 NW - 306
10/21/19 06:00 14.3 94 4 10 W - 277
10/21/19 05:00 14.3 94 6 14 W - 254
10/21/19 04:00 14.2 94 6 12 W - 268
10/21/19 03:00 14.5 95 9 20 SW - 240
10/21/19 02:00 14.6 95 10 25 SW - 232
10/21/19 01:00 14.9 95 8 21 W - 263
10/21/19 00:00 14.9 95 10 18 NW - 312
10/20/19 23:00 14.5 94 9 15 NW - 310